sensor_id;sensor_type;location;lat;lon;timestamp;P1;durP1;ratioP1;P2;durP2;ratioP2
21769;SDS011;11046;49.558;8.674;2022-12-07T13:07:00;23.73;;;11.73;;
21769;SDS011;11046;49.558;8.674;2022-12-07T13:10:01;26.87;;;12.10;;
21769;SDS011;11046;49.558;8.674;2022-12-07T13:19:53;21.17;;;11.13;;
21769;SDS011;11046;49.558;8.674;2022-12-07T13:22:43;25.17;;;12.23;;
21769;SDS011;11046;49.558;8.674;2022-12-07T13:32:16;27.50;;;13.00;;
21769;SDS011;11046;49.558;8.674;2022-12-07T13:38:39;25.10;;;11.93;;
21769;SDS011;11046;49.558;8.674;2022-12-07T13:41:54;19.83;;;11.07;;
21769;SDS011;11046;49.558;8.674;2022-12-07T13:44:57;32.47;;;11.23;;
21769;SDS011;11046;49.558;8.674;2022-12-07T13:47:59;23.27;;;12.67;;
21769;SDS011;11046;49.558;8.674;2022-12-07T13:51:01;28.83;;;13.53;;
21769;SDS011;11046;49.558;8.674;2022-12-07T13:54:09;27.10;;;14.57;;
21769;SDS011;11046;49.558;8.674;2022-12-07T13:57:11;28.40;;;14.20;;
21769;SDS011;11046;49.558;8.674;2022-12-07T14:00:16;25.37;;;12.93;;
21769;SDS011;11046;49.558;8.674;2022-12-07T14:03:23;29.37;;;13.20;;
21769;SDS011;11046;49.558;8.674;2022-12-07T14:06:28;20.83;;;10.87;;
21769;SDS011;11046;49.558;8.674;2022-12-07T14:09:29;20.60;;;10.00;;
21769;SDS011;11046;49.558;8.674;2022-12-07T14:12:31;26.57;;;10.83;;
21769;SDS011;11046;49.558;8.674;2022-12-07T14:15:33;18.47;;;9.73;;
21769;SDS011;11046;49.558;8.674;2022-12-07T14:21:35;19.57;;;8.50;;
21769;SDS011;11046;49.558;8.674;2022-12-07T14:24:42;18.17;;;8.23;;
21769;SDS011;11046;49.558;8.674;2022-12-07T14:27:48;18.83;;;8.57;;
21769;SDS011;11046;49.558;8.674;2022-12-07T14:31:00;16.67;;;7.53;;
21769;SDS011;11046;49.558;8.674;2022-12-07T14:34:02;16.80;;;7.70;;
21769;SDS011;11046;49.558;8.674;2022-12-07T14:37:03;14.67;;;7.40;;
21769;SDS011;11046;49.558;8.674;2022-12-07T14:40:07;14.57;;;6.90;;
21769;SDS011;11046;49.558;8.674;2022-12-07T14:43:12;14.20;;;6.83;;
21769;SDS011;11046;49.558;8.674;2022-12-07T14:46:18;11.83;;;6.30;;
21769;SDS011;11046;49.558;8.674;2022-12-07T14:49:18;15.03;;;6.93;;
21769;SDS011;11046;49.558;8.674;2022-12-07T14:52:20;12.70;;;6.57;;
21769;SDS011;11046;49.558;8.674;2022-12-07T14:55:28;19.57;;;7.60;;
21769;SDS011;11046;49.558;8.674;2022-12-07T14:58:30;12.70;;;6.70;;
21769;SDS011;11046;49.558;8.674;2022-12-07T15:01:32;14.13;;;7.10;;
21769;SDS011;11046;49.558;8.674;2022-12-07T15:04:33;13.13;;;7.23;;
21769;SDS011;11046;49.558;8.674;2022-12-07T15:07:33;12.80;;;7.00;;
21769;SDS011;11046;49.558;8.674;2022-12-07T15:10:34;17.97;;;8.60;;
21769;SDS011;11046;49.558;8.674;2022-12-07T15:13:38;15.57;;;8.43;;
21769;SDS011;11046;49.558;8.674;2022-12-07T15:16:57;19.03;;;9.53;;
21769;SDS011;11046;49.558;8.674;2022-12-07T15:19:58;19.03;;;9.73;;
21769;SDS011;11046;49.558;8.674;2022-12-07T15:22:59;18.67;;;9.93;;
21769;SDS011;11046;49.558;8.674;2022-12-07T15:25:59;15.60;;;8.80;;
21769;SDS011;11046;49.558;8.674;2022-12-07T15:29:00;15.47;;;8.53;;
21769;SDS011;11046;49.558;8.674;2022-12-07T15:32:01;23.33;;;9.13;;
21769;SDS011;11046;49.558;8.674;2022-12-07T15:35:02;18.97;;;8.67;;
21769;SDS011;11046;49.558;8.674;2022-12-07T15:38:03;18.10;;;8.53;;
21769;SDS011;11046;49.558;8.674;2022-12-07T15:41:03;16.73;;;8.60;;
21769;SDS011;11046;49.558;8.674;2022-12-07T15:44:04;17.53;;;9.57;;
21769;SDS011;11046;49.558;8.674;2022-12-07T15:47:23;18.03;;;9.33;;
21769;SDS011;11046;49.558;8.674;2022-12-07T15:50:24;16.90;;;9.00;;
21769;SDS011;11046;49.558;8.674;2022-12-07T15:53:25;16.23;;;8.87;;
21769;SDS011;11046;49.558;8.674;2022-12-07T15:56:26;17.33;;;8.77;;
21769;SDS011;11046;49.558;8.674;2022-12-07T15:59:27;16.77;;;8.83;;
21769;SDS011;11046;49.558;8.674;2022-12-07T16:02:28;17.07;;;8.97;;
21769;SDS011;11046;49.558;8.674;2022-12-07T16:05:29;25.47;;;12.03;;
21769;SDS011;11046;49.558;8.674;2022-12-07T16:08:29;19.43;;;10.73;;
21769;SDS011;11046;49.558;8.674;2022-12-07T16:11:30;35.97;;;19.97;;
21769;SDS011;11046;49.558;8.674;2022-12-07T16:14:31;28.03;;;14.87;;
21769;SDS011;11046;49.558;8.674;2022-12-07T16:17:33;17.50;;;8.90;;
21769;SDS011;11046;49.558;8.674;2022-12-07T16:20:34;17.77;;;7.83;;
21769;SDS011;11046;49.558;8.674;2022-12-07T16:23:35;17.97;;;8.03;;
21769;SDS011;11046;49.558;8.674;2022-12-07T16:26:35;12.70;;;6.97;;
21769;SDS011;11046;49.558;8.674;2022-12-07T16:29:36;15.37;;;7.57;;
21769;SDS011;11046;49.558;8.674;2022-12-07T16:32:37;14.00;;;7.17;;
21769;SDS011;11046;49.558;8.674;2022-12-07T16:35:38;15.33;;;7.53;;
21769;SDS011;11046;49.558;8.674;2022-12-07T16:38:43;17.00;;;8.30;;
21769;SDS011;11046;49.558;8.674;2022-12-07T16:41:44;16.53;;;8.63;;
21769;SDS011;11046;49.558;8.674;2022-12-07T16:44:45;18.97;;;9.90;;
21769;SDS011;11046;49.558;8.674;2022-12-07T16:47:46;18.23;;;9.13;;
21769;SDS011;11046;49.558;8.674;2022-12-07T16:50:47;19.83;;;8.83;;
21769;SDS011;11046;49.558;8.674;2022-12-07T16:53:47;19.60;;;9.67;;
21769;SDS011;11046;49.558;8.674;2022-12-07T16:56:48;19.97;;;10.13;;
21769;SDS011;11046;49.558;8.674;2022-12-07T16:59:49;17.00;;;9.87;;
21769;SDS011;11046;49.558;8.674;2022-12-07T17:02:51;18.33;;;10.00;;
21769;SDS011;11046;49.558;8.674;2022-12-07T17:05:52;18.43;;;9.90;;
21769;SDS011;11046;49.558;8.674;2022-12-07T17:08:53;17.17;;;9.30;;
21769;SDS011;11046;49.558;8.674;2022-12-07T17:11:54;18.63;;;9.47;;
21769;SDS011;11046;49.558;8.674;2022-12-07T17:14:55;18.10;;;9.73;;
21769;SDS011;11046;49.558;8.674;2022-12-07T17:18:16;21.37;;;10.70;;
21769;SDS011;11046;49.558;8.674;2022-12-07T17:21:17;22.30;;;10.60;;
21769;SDS011;11046;49.558;8.674;2022-12-07T17:24:18;19.73;;;10.00;;
21769;SDS011;11046;49.558;8.674;2022-12-07T17:27:19;22.47;;;10.63;;
21769;SDS011;11046;49.558;8.674;2022-12-07T17:30:20;24.07;;;11.40;;
21769;SDS011;11046;49.558;8.674;2022-12-07T17:33:21;20.47;;;10.73;;
21769;SDS011;11046;49.558;8.674;2022-12-07T17:36:23;22.63;;;10.73;;
21769;SDS011;11046;49.558;8.674;2022-12-07T17:39:25;18.77;;;10.30;;
21769;SDS011;11046;49.558;8.674;2022-12-07T17:42:26;19.73;;;10.33;;
21769;SDS011;11046;49.558;8.674;2022-12-07T17:45:36;20.87;;;10.90;;
21769;SDS011;11046;49.558;8.674;2022-12-07T17:48:37;27.37;;;12.40;;
21769;SDS011;11046;49.558;8.674;2022-12-07T17:51:38;21.30;;;11.77;;
21769;SDS011;11046;49.558;8.674;2022-12-07T17:54:57;19.33;;;10.40;;
21769;SDS011;11046;49.558;8.674;2022-12-07T17:57:57;18.70;;;9.87;;
21769;SDS011;11046;49.558;8.674;2022-12-07T18:00:58;25.17;;;14.13;;
21769;SDS011;11046;49.558;8.674;2022-12-07T18:03:59;23.30;;;11.63;;
21769;SDS011;11046;49.558;8.674;2022-12-07T18:07:01;26.93;;;12.77;;
21769;SDS011;11046;49.558;8.674;2022-12-07T18:10:05;21.10;;;9.77;;
21769;SDS011;11046;49.558;8.674;2022-12-07T18:13:08;20.97;;;10.57;;
21769;SDS011;11046;49.558;8.674;2022-12-07T18:16:30;23.20;;;11.53;;
21769;SDS011;11046;49.558;8.674;2022-12-07T18:19:33;22.17;;;11.80;;
21769;SDS011;11046;49.558;8.674;2022-12-07T18:22:36;23.00;;;11.63;;
21769;SDS011;11046;49.558;8.674;2022-12-07T18:25:39;24.57;;;11.50;;
21769;SDS011;11046;49.558;8.674;2022-12-07T18:28:43;22.37;;;11.77;;
21769;SDS011;11046;49.558;8.674;2022-12-07T18:31:45;23.40;;;11.23;;
21769;SDS011;11046;49.558;8.674;2022-12-07T18:34:46;27.23;;;13.00;;
21769;SDS011;11046;49.558;8.674;2022-12-07T18:37:48;23.67;;;12.97;;
21769;SDS011;11046;49.558;8.674;2022-12-07T18:40:49;28.10;;;14.17;;
21769;SDS011;11046;49.558;8.674;2022-12-07T18:43:50;31.30;;;14.70;;
21769;SDS011;11046;49.558;8.674;2022-12-07T18:46:51;30.93;;;15.30;;
21769;SDS011;11046;49.558;8.674;2022-12-07T18:49:51;27.03;;;14.13;;
21769;SDS011;11046;49.558;8.674;2022-12-07T18:52:52;31.73;;;16.40;;
21769;SDS011;11046;49.558;8.674;2022-12-07T18:56:18;27.17;;;14.50;;
21769;SDS011;11046;49.558;8.674;2022-12-07T18:59:20;28.50;;;14.60;;
21769;SDS011;11046;49.558;8.674;2022-12-07T19:02:39;31.90;;;15.60;;
21769;SDS011;11046;49.558;8.674;2022-12-07T19:05:40;31.33;;;14.97;;
21769;SDS011;11046;49.558;8.674;2022-12-07T19:08:41;31.43;;;16.40;;
21769;SDS011;11046;49.558;8.674;2022-12-07T19:11:42;27.53;;;14.97;;
21769;SDS011;11046;49.558;8.674;2022-12-07T19:14:49;28.33;;;14.53;;
21769;SDS011;11046;49.558;8.674;2022-12-07T19:17:49;34.77;;;15.50;;
21769;SDS011;11046;49.558;8.674;2022-12-07T19:20:51;34.77;;;15.00;;
21769;SDS011;11046;49.558;8.674;2022-12-07T19:23:53;29.37;;;13.83;;
21769;SDS011;11046;49.558;8.674;2022-12-07T19:26:54;27.30;;;14.03;;
21769;SDS011;11046;49.558;8.674;2022-12-07T19:29:55;34.50;;;16.37;;
21769;SDS011;11046;49.558;8.674;2022-12-07T19:32:55;28.37;;;15.30;;
21769;SDS011;11046;49.558;8.674;2022-12-07T19:35:56;27.87;;;15.37;;
21769;SDS011;11046;49.558;8.674;2022-12-07T19:38:57;31.60;;;15.77;;
21769;SDS011;11046;49.558;8.674;2022-12-07T19:41:57;30.57;;;14.87;;
21769;SDS011;11046;49.558;8.674;2022-12-07T19:44:58;28.83;;;15.57;;
21769;SDS011;11046;49.558;8.674;2022-12-07T19:47:59;30.73;;;15.73;;
21769;SDS011;11046;49.558;8.674;2022-12-07T19:51:03;27.67;;;14.90;;
21769;SDS011;11046;49.558;8.674;2022-12-07T19:54:04;33.67;;;15.23;;
21769;SDS011;11046;49.558;8.674;2022-12-07T19:57:05;30.70;;;14.97;;
21769;SDS011;11046;49.558;8.674;2022-12-07T20:00:08;33.07;;;15.73;;
21769;SDS011;11046;49.558;8.674;2022-12-07T20:03:09;31.67;;;15.63;;
21769;SDS011;11046;49.558;8.674;2022-12-07T20:06:12;30.70;;;15.07;;
21769;SDS011;11046;49.558;8.674;2022-12-07T20:09:14;33.00;;;15.40;;
21769;SDS011;11046;49.558;8.674;2022-12-07T20:12:16;30.27;;;14.87;;
21769;SDS011;11046;49.558;8.674;2022-12-07T20:15:38;29.93;;;14.23;;
21769;SDS011;11046;49.558;8.674;2022-12-07T20:18:39;32.10;;;15.03;;
21769;SDS011;11046;49.558;8.674;2022-12-07T20:21:41;28.83;;;14.77;;
21769;SDS011;11046;49.558;8.674;2022-12-07T20:24:43;30.57;;;15.03;;
21769;SDS011;11046;49.558;8.674;2022-12-07T20:27:43;31.63;;;15.83;;
21769;SDS011;11046;49.558;8.674;2022-12-07T20:30:45;32.60;;;15.70;;
21769;SDS011;11046;49.558;8.674;2022-12-07T20:33:50;27.97;;;14.97;;
21769;SDS011;11046;49.558;8.674;2022-12-07T20:36:51;34.97;;;16.27;;
21769;SDS011;11046;49.558;8.674;2022-12-07T20:39:53;30.73;;;14.77;;
21769;SDS011;11046;49.558;8.674;2022-12-07T20:42:54;33.73;;;16.13;;
21769;SDS011;11046;49.558;8.674;2022-12-07T20:45:55;32.07;;;15.83;;
21769;SDS011;11046;49.558;8.674;2022-12-07T20:48:57;33.40;;;15.47;;
21769;SDS011;11046;49.558;8.674;2022-12-07T20:52:01;33.07;;;16.53;;
21769;SDS011;11046;49.558;8.674;2022-12-07T20:55:02;34.23;;;16.13;;
21769;SDS011;11046;49.558;8.674;2022-12-07T20:58:03;36.67;;;15.93;;
21769;SDS011;11046;49.558;8.674;2022-12-07T21:01:04;35.37;;;16.60;;
21769;SDS011;11046;49.558;8.674;2022-12-07T21:04:05;34.47;;;16.87;;
21769;SDS011;11046;49.558;8.674;2022-12-07T21:07:05;34.43;;;16.20;;
21769;SDS011;11046;49.558;8.674;2022-12-07T21:10:06;36.17;;;16.80;;
21769;SDS011;11046;49.558;8.674;2022-12-07T21:13:07;35.27;;;15.60;;
21769;SDS011;11046;49.558;8.674;2022-12-07T21:19:10;28.03;;;14.47;;
21769;SDS011;11046;49.558;8.674;2022-12-07T21:22:11;34.43;;;15.40;;
21769;SDS011;11046;49.558;8.674;2022-12-07T21:25:11;32.13;;;16.70;;
21769;SDS011;11046;49.558;8.674;2022-12-07T21:28:13;32.70;;;15.70;;
21769;SDS011;11046;49.558;8.674;2022-12-07T21:31:14;29.00;;;13.77;;
21769;SDS011;11046;49.558;8.674;2022-12-07T21:34:15;28.00;;;14.77;;
21769;SDS011;11046;49.558;8.674;2022-12-07T21:37:15;31.00;;;14.33;;
21769;SDS011;11046;49.558;8.674;2022-12-07T21:40:16;29.53;;;15.17;;
21769;SDS011;11046;49.558;8.674;2022-12-07T21:43:17;30.57;;;15.20;;
21769;SDS011;11046;49.558;8.674;2022-12-07T21:46:18;33.13;;;15.03;;
21769;SDS011;11046;49.558;8.674;2022-12-07T21:49:19;31.33;;;13.77;;
21769;SDS011;11046;49.558;8.674;2022-12-07T21:52:20;27.17;;;13.80;;
21769;SDS011;11046;49.558;8.674;2022-12-07T21:55:21;30.90;;;14.13;;
21769;SDS011;11046;49.558;8.674;2022-12-07T21:58:21;29.37;;;14.10;;
21769;SDS011;11046;49.558;8.674;2022-12-07T22:01:23;31.07;;;14.50;;
21769;SDS011;11046;49.558;8.674;2022-12-07T22:04:25;28.43;;;13.60;;
21769;SDS011;11046;49.558;8.674;2022-12-07T22:07:26;32.13;;;15.33;;
21769;SDS011;11046;49.558;8.674;2022-12-07T22:10:27;33.90;;;15.87;;
21769;SDS011;11046;49.558;8.674;2022-12-07T22:13:28;29.40;;;14.10;;
21769;SDS011;11046;49.558;8.674;2022-12-07T22:16:51;29.87;;;14.80;;
21769;SDS011;11046;49.558;8.674;2022-12-07T22:19:52;29.03;;;14.07;;
21769;SDS011;11046;49.558;8.674;2022-12-07T22:22:52;29.37;;;13.30;;
21769;SDS011;11046;49.558;8.674;2022-12-07T22:25:53;30.80;;;14.97;;
21769;SDS011;11046;49.558;8.674;2022-12-07T22:28:54;32.73;;;14.10;;
21769;SDS011;11046;49.558;8.674;2022-12-07T22:31:55;26.70;;;13.73;;
21769;SDS011;11046;49.558;8.674;2022-12-07T22:34:55;28.87;;;13.80;;
21769;SDS011;11046;49.558;8.674;2022-12-07T22:37:56;32.10;;;13.13;;
21769;SDS011;11046;49.558;8.674;2022-12-07T22:40:57;27.63;;;13.10;;
21769;SDS011;11046;49.558;8.674;2022-12-07T22:43:58;28.17;;;13.00;;
21769;SDS011;11046;49.558;8.674;2022-12-07T22:46:59;29.67;;;13.50;;
21769;SDS011;11046;49.558;8.674;2022-12-07T22:49:59;31.60;;;13.67;;
21769;SDS011;11046;49.558;8.674;2022-12-07T22:53:00;33.60;;;15.27;;
21769;SDS011;11046;49.558;8.674;2022-12-07T22:56:01;32.60;;;14.57;;
21769;SDS011;11046;49.558;8.674;2022-12-07T22:59:03;29.90;;;14.47;;
21769;SDS011;11046;49.558;8.674;2022-12-07T23:02:05;34.47;;;15.77;;
21769;SDS011;11046;49.558;8.674;2022-12-07T23:05:06;29.10;;;13.60;;
21769;SDS011;11046;49.558;8.674;2022-12-07T23:08:07;32.53;;;13.60;;
21769;SDS011;11046;49.558;8.674;2022-12-07T23:11:08;31.17;;;14.53;;
21769;SDS011;11046;49.558;8.674;2022-12-07T23:14:11;31.40;;;13.40;;
21769;SDS011;11046;49.558;8.674;2022-12-07T23:17:17;29.40;;;13.87;;
21769;SDS011;11046;49.558;8.674;2022-12-07T23:20:18;34.60;;;14.20;;
21769;SDS011;11046;49.558;8.674;2022-12-07T23:23:19;32.53;;;13.63;;
21769;SDS011;11046;49.558;8.674;2022-12-07T23:26:19;33.20;;;14.13;;
21769;SDS011;11046;49.558;8.674;2022-12-07T23:29:20;28.83;;;13.47;;
21769;SDS011;11046;49.558;8.674;2022-12-07T23:32:21;32.27;;;14.53;;
21769;SDS011;11046;49.558;8.674;2022-12-07T23:35:21;35.20;;;15.63;;
21769;SDS011;11046;49.558;8.674;2022-12-07T23:38:25;35.93;;;14.63;;
21769;SDS011;11046;49.558;8.674;2022-12-07T23:41:26;37.27;;;15.97;;
21769;SDS011;11046;49.558;8.674;2022-12-07T23:44:29;39.93;;;16.03;;
21769;SDS011;11046;49.558;8.674;2022-12-07T23:47:29;34.67;;;15.53;;
21769;SDS011;11046;49.558;8.674;2022-12-07T23:50:30;35.80;;;14.97;;
21769;SDS011;11046;49.558;8.674;2022-12-07T23:53:37;36.50;;;15.07;;
21769;SDS011;11046;49.558;8.674;2022-12-07T23:56:40;32.07;;;14.67;;
21769;SDS011;11046;49.558;8.674;2022-12-07T23:59:41;33.47;;;15.70;;
